Time;durP1;ratioP1;P1;durP2;ratioP2;P2;SDS_P1;SDS_P2;PMS_P1;PMS_P2;Temp;Humidity;BMP_temperature;BMP_pressure;BME280_temperature;BME280_humidity;BME280_pressure;Samples;Min_cycle;Max_cycle;Signal;HPM_P1;HPM_P2
2022/01/19 00:01:31;;;;;;;12.43;7.78;;;0.60;99.90;;;;;;5093232;28;20480;-67
2022/01/19 00:03:57;;;;;;;15.23;7.95;;;0.60;99.90;;;;;;5092589;28;20020;-67
2022/01/19 00:06:22;;;;;;;15.40;8.02;;;0.50;99.90;;;;;;5092608;28;20127;-67
2022/01/19 00:08:49;;;;;;;12.80;7.53;;;0.50;99.90;;;;;;5092167;28;20119;-67
2022/01/19 00:11:16;;;;;;;14.93;8.30;;;0.50;99.90;;;;;;5090245;28;20069;-67
2022/01/19 00:13:42;;;;;;;14.48;8.07;;;0.50;99.90;;;;;;5092163;28;20077;-67
2022/01/19 00:16:08;;;;;;;20.40;8.20;;;0.50;99.90;;;;;;5092726;28;20463;-67
2022/01/19 00:18:34;;;;;;;16.38;8.63;;;0.40;99.90;;;;;;5085617;28;20080;-66
2022/01/19 00:21:00;;;;;;;14.20;8.73;;;0.40;99.90;;;;;;5091246;28;20032;-68
2022/01/19 00:23:25;;;;;;;16.13;9.90;;;0.40;99.90;;;;;;5092413;28;20028;-68
2022/01/19 00:25:53;;;;;;;15.90;10.18;;;0.30;99.90;;;;;;5091805;28;20027;-67
2022/01/19 00:28:19;;;;;;;16.65;9.70;;;0.20;99.90;;;;;;5092467;28;20117;-68
2022/01/19 00:30:45;;;;;;;17.35;10.52;;;0.20;99.90;;;;;;5091600;28;20039;-67
2022/01/19 00:33:13;;;;;;;18.60;10.48;;;0.20;99.90;;;;;;5092458;28;20423;-67
2022/01/19 00:35:39;;;;;;;22.83;10.98;;;0.10;99.90;;;;;;5091697;28;20039;-67
2022/01/19 00:38:06;;;;;;;22.50;10.35;;;0.10;99.90;;;;;;5092179;28;20546;-67
2022/01/19 00:40:32;;;;;;;19.20;10.20;;;0.10;99.90;;;;;;5092062;28;20035;-66
2022/01/19 00:42:58;;;;;;;22.60;10.98;;;0.10;99.90;;;;;;5091705;28;20016;-67
2022/01/19 00:45:24;;;;;;;21.20;10.77;;;0.00;99.90;;;;;;5092283;28;20418;-67
2022/01/19 00:47:51;;;;;;;19.52;11.27;;;0.00;99.90;;;;;;5091130;28;20042;-67
2022/01/19 00:50:20;;;;;;;22.83;11.35;;;0.00;99.90;;;;;;5092303;28;20393;-66
2022/01/19 00:52:45;;;;;;;21.23;10.87;;;0.00;99.90;;;;;;5091407;28;20077;-67
2022/01/19 00:55:12;;;;;;;19.88;10.57;;;0.00;99.90;;;;;;5091845;28;20262;-67
2022/01/19 00:57:38;;;;;;;19.77;11.32;;;0.00;99.90;;;;;;5091110;28;20040;-67
2022/01/19 01:00:07;;;;;;;23.77;11.60;;;0.00;99.90;;;;;;5092642;28;20099;-67
2022/01/19 01:02:33;;;;;;;21.88;10.90;;;0.00;99.90;;;;;;5091767;28;20073;-66
2022/01/19 01:04:58;;;;;;;20.25;11.05;;;0.00;99.90;;;;;;5091519;28;20016;-67
2022/01/19 01:07:24;;;;;;;22.35;11.25;;;0.00;99.90;;;;;;5073620;28;20504;-67
2022/01/19 01:09:49;;;;;;;21.50;12.25;;;0.00;99.90;;;;;;5090704;28;20484;-68
2022/01/19 01:12:22;;;;;;;22.42;12.23;;;0.00;99.90;;;;;;5086433;28;20107;-68
2022/01/19 01:20:19;;;;;;;18.20;11.88;;;-0.10;99.90;;;;;;5090882;28;20035;-67
2022/01/19 01:22:45;;;;;;;21.98;12.00;;;-0.10;99.90;;;;;;5090680;28;20020;-67
2022/01/19 01:25:11;;;;;;;19.10;12.73;;;-0.10;99.90;;;;;;5091284;28;20582;-67
2022/01/19 01:27:37;;;;;;;22.23;13.13;;;-0.10;99.90;;;;;;5090693;28;20028;-66
2022/01/19 01:30:05;;;;;;;20.13;12.00;;;-0.20;99.90;;;;;;5088633;28;20111;-67
2022/01/19 01:32:31;;;;;;;23.60;12.25;;;-0.20;99.90;;;;;;5090075;28;20423;-67
2022/01/19 01:34:57;;;;;;;29.52;13.88;;;-0.20;99.90;;;;;;5090383;28;20073;-67
2022/01/19 01:37:22;;;;;;;28.60;14.07;;;-0.30;99.90;;;;;;5091099;28;20429;-67
2022/01/19 01:39:48;;;;;;;23.92;12.90;;;-0.20;99.90;;;;;;5090668;28;20492;-67
2022/01/19 01:42:17;;;;;;;24.30;12.15;;;-0.20;99.90;;;;;;5091069;28;20457;-67
2022/01/19 01:44:46;;;;;;;25.63;14.13;;;-0.30;99.90;;;;;;5069427;28;20027;-67
2022/01/19 01:47:14;;;;;;;31.05;14.52;;;-0.30;99.90;;;;;;5090976;28;20039;-67
2022/01/19 01:54:55;;;;;;;27.58;14.48;;;-0.30;99.90;;;;;;5089205;28;20027;-68
2022/01/19 01:57:20;;;;;;;28.20;14.77;;;-0.20;99.90;;;;;;5090840;28;20036;-68
2022/01/19 01:59:46;;;;;;;21.88;13.95;;;-0.20;99.90;;;;;;5089881;28;20049;-67
2022/01/19 02:02:13;;;;;;;25.63;14.02;;;-0.20;99.90;;;;;;5090980;28;20024;-67
2022/01/19 02:04:41;;;;;;;24.23;13.80;;;-0.30;99.90;;;;;;5089577;28;20027;-67
2022/01/19 02:07:33;;;;;;;21.77;12.80;;;-0.30;99.90;;;;;;5091106;28;20069;-67
2022/01/19 02:10:03;;;;;;;28.88;14.95;;;-0.30;99.90;;;;;;5089926;28;20099;-67
2022/01/19 02:23:39;;;;;;;20.55;12.73;;;-0.60;99.90;;;;;;5088149;28;20031;-67
2022/01/19 02:26:12;;;;;;;25.97;13.57;;;-0.60;99.90;;;;;;5088860;28;20024;-67
2022/01/19 02:29:00;;;;;;;29.48;13.77;;;-0.70;99.90;;;;;;5089797;28;20032;-66
2022/01/19 02:40:10;;;;;;;30.42;14.52;;;-0.70;99.90;;;;;;5085719;28;20092;-67
2022/01/19 02:42:36;;;;;;;31.17;14.82;;;-0.70;99.90;;;;;;5088717;28;20058;-67
2022/01/19 02:49:55;;;;;;;23.30;13.60;;;-0.70;99.90;;;;;;5071667;28;20189;-66
2022/01/19 02:52:23;;;;;;;23.70;13.35;;;-0.70;99.90;;;;;;5074017;28;20021;-66
2022/01/19 02:54:50;;;;;;;21.77;12.77;;;-0.80;99.90;;;;;;5073586;28;20074;-66
2022/01/19 02:57:16;;;;;;;22.85;12.68;;;-0.90;99.90;;;;;;5074187;28;20028;-67
2022/01/19 03:10:24;;;;;;;32.70;15.85;;;-1.20;99.90;;;;;;5071061;28;20036;-67
2022/01/19 03:12:50;;;;;;;32.35;15.82;;;-1.20;99.90;;;;;;5069803;28;20032;-66
2022/01/19 03:15:16;;;;;;;29.38;16.08;;;-1.20;99.90;;;;;;5072139;28;20021;-67
2022/01/19 03:17:42;;;;;;;27.95;16.45;;;-1.20;99.90;;;;;;5072364;28;20040;-66
2022/01/19 03:20:09;;;;;;;27.83;16.15;;;-1.20;99.90;;;;;;5073218;28;20028;-66
2022/01/19 03:22:46;;;;;;;25.42;14.32;;;-1.30;99.90;;;;;;5074663;28;20029;-65
2022/01/19 03:25:13;;;;;;;26.63;14.77;;;-1.30;99.90;;;;;;5074746;28;20033;-67
2022/01/19 03:27:46;;;;;;;28.75;16.35;;;-1.40;99.90;;;;;;5074397;28;20369;-67
2022/01/19 03:30:12;;;;;;;29.90;15.68;;;-1.40;99.90;;;;;;5074885;28;20033;-67
2022/01/19 03:32:38;;;;;;;37.58;17.33;;;-1.50;99.90;;;;;;5074031;28;20024;-64
2022/01/19 03:35:04;;;;;;;32.70;17.70;;;-1.50;99.90;;;;;;5074590;28;20097;-65
2022/01/19 03:37:30;;;;;;;28.55;14.98;;;-1.50;99.90;;;;;;5073669;28;20044;-68
2022/01/19 03:39:56;;;;;;;42.10;19.08;;;-1.50;99.90;;;;;;5073810;28;20602;-65
2022/01/19 03:42:22;;;;;;;40.65;19.77;;;-1.60;99.90;;;;;;5074448;28;20472;-67
2022/01/19 03:44:47;;;;;;;36.60;19.63;;;-1.60;99.90;;;;;;5073909;28;20030;-69
2022/01/19 03:47:13;;;;;;;37.70;18.95;;;-1.50;99.90;;;;;;5074623;28;20531;-67
2022/01/19 03:49:39;;;;;;;38.97;18.13;;;-1.40;99.90;;;;;;5086673;28;20048;-68
2022/01/19 03:52:06;;;;;;;30.73;15.77;;;-1.30;99.90;;;;;;5094594;28;20107;-68
2022/01/19 03:54:43;;;;;;;30.10;16.40;;;-1.30;99.90;;;;;;5094588;28;20093;-69
2022/01/19 03:57:10;;;;;;;34.85;16.40;;;-1.30;99.90;;;;;;5076597;28;20056;-67
2022/01/19 03:59:36;;;;;;;29.58;15.60;;;-1.30;99.90;;;;;;5094318;28;20030;-67
2022/01/19 04:02:02;;;;;;;33.00;16.48;;;-1.30;99.90;;;;;;5093765;28;20024;-69
2022/01/19 04:09:33;;;;;;;32.80;16.43;;;-1.40;99.90;;;;;;5074007;28;20482;-69
2022/01/19 04:11:59;;;;;;;35.47;16.58;;;-1.40;99.90;;;;;;5073191;28;20284;-67
2022/01/19 04:14:25;;;;;;;38.47;18.90;;;-1.40;99.90;;;;;;5074105;28;20082;-68
2022/01/19 04:17:00;;;;;;;45.50;20.02;;;-1.50;99.90;;;;;;5073258;28;20039;-67
2022/01/19 04:19:29;;;;;;;44.78;20.45;;;-1.50;99.90;;;;;;5074122;28;20107;-68
2022/01/19 04:21:57;;;;;;;35.80;18.52;;;-1.50;99.90;;;;;;5072920;28;20439;-67
2022/01/19 04:24:23;;;;;;;41.45;21.05;;;-1.40;99.90;;;;;;5077784;28;20024;-67
2022/01/19 04:26:58;;;;;;;36.63;19.48;;;-1.40;99.90;;;;;;5093132;28;20036;-67
2022/01/19 04:29:24;;;;;;;39.83;20.33;;;-1.50;99.90;;;;;;5075839;28;20039;-66
2022/01/19 04:31:50;;;;;;;43.38;20.13;;;-1.50;99.90;;;;;;5092913;28;20024;-68
2022/01/19 04:34:18;;;;;;;35.00;20.00;;;-1.60;99.90;;;;;;5093605;28;20385;-67
2022/01/19 04:43:50;;;;;;;43.08;22.33;;;-1.70;99.90;;;;;;5093983;28;20506;-66
2022/01/19 04:45:19;;;;;;;45.97;21.10;;;-1.50;99.90;;;;;;5092724;28;20046;-69
2022/01/19 05:03:59;;;;;;;45.13;20.85;;;-1.30;99.90;;;;;;5091990;28;20141;-67
2022/01/19 05:06:26;;;;;;;48.22;21.75;;;-1.20;99.90;;;;;;5092587;28;20346;-67
2022/01/19 05:08:59;;;;;;;48.33;20.63;;;-1.30;99.90;;;;;;5092476;28;20028;-67
2022/01/19 05:14:26;;;;;;;40.10;20.30;;;-1.30;99.90;;;;;;5030461;28;20041;-67
2022/01/19 05:16:52;;;;;;;44.42;21.42;;;-1.30;99.90;;;;;;5078595;28;20051;-67
2022/01/19 05:19:17;;;;;;;40.63;21.05;;;-1.30;99.90;;;;;;5092982;28;20028;-70
2022/01/19 05:21:43;;;;;;;39.35;20.02;;;-1.40;99.90;;;;;;5091907;28;20028;-66
2022/01/19 05:24:08;;;;;;;38.88;20.25;;;-1.40;99.90;;;;;;5092107;28;20035;-68
2022/01/19 05:26:36;;;;;;;41.80;20.30;;;-1.50;99.90;;;;;;5092710;28;20035;-68
2022/01/19 05:29:03;;;;;;;37.70;19.77;;;-1.50;99.90;;;;;;5092030;28;20125;-68
2022/01/19 05:31:28;;;;;;;40.05;19.35;;;-1.50;99.90;;;;;;5092737;28;20081;-68
2022/01/19 05:33:54;;;;;;;38.72;19.77;;;-1.50;99.90;;;;;;5092215;28;20460;-67
2022/01/19 05:36:20;;;;;;;37.33;18.75;;;-1.50;99.90;;;;;;5092563;28;20020;-69
2022/01/19 05:38:46;;;;;;;43.45;19.48;;;-1.60;99.90;;;;;;5091584;28;20020;-67
2022/01/19 05:41:11;;;;;;;42.25;19.05;;;-1.60;99.90;;;;;;5092489;28;20024;-67
2022/01/19 05:43:37;;;;;;;41.30;18.63;;;-1.60;99.90;;;;;;5092658;28;20024;-68
2022/01/19 05:46:03;;;;;;;43.97;20.60;;;-1.70;99.90;;;;;;5091688;28;20453;-67
2022/01/19 05:48:29;;;;;;;40.78;20.85;;;-1.70;99.90;;;;;;5092252;28;20059;-69
2022/01/19 05:50:54;;;;;;;47.05;22.73;;;-1.70;99.90;;;;;;5091752;28;20028;-69
2022/01/19 05:53:20;;;;;;;44.25;20.23;;;-1.80;99.90;;;;;;5092006;28;20476;-67
2022/01/19 05:55:46;;;;;;;47.58;19.33;;;-1.80;99.90;;;;;;5086914;28;20107;-67
2022/01/19 05:58:12;;;;;;;47.20;19.52;;;-1.70;99.90;;;;;;5091876;28;20032;-67
2022/01/19 06:00:38;;;;;;;39.10;19.83;;;-1.70;99.90;;;;;;5092373;28;20032;-69
2022/01/19 06:03:04;;;;;;;39.15;20.15;;;-1.60;99.90;;;;;;5092244;28;20117;-67
2022/01/19 06:05:31;;;;;;;37.75;18.85;;;-1.60;99.90;;;;;;5092093;28;20472;-67
2022/01/19 06:08:42;;;;;;;38.63;19.17;;;-1.60;99.90;;;;;;5090766;28;20109;-67
2022/01/19 06:10:46;;;;;;;36.17;18.58;;;-1.60;99.90;;;;;;5080079;28;20043;-67
2022/01/19 06:13:15;;;;;;;38.95;18.27;;;-1.60;99.90;;;;;;5092188;28;20020;-68
2022/01/19 06:15:42;;;;;;;42.92;20.60;;;-1.60;99.90;;;;;;5091635;28;20069;-66
2022/01/19 06:18:08;;;;;;;35.75;18.58;;;-1.60;99.90;;;;;;5090731;28;20504;-68
2022/01/19 06:20:34;;;;;;;42.45;18.45;;;-1.60;99.90;;;;;;5091715;28;20086;-66
2022/01/19 06:22:59;;;;;;;40.05;19.73;;;-1.60;99.90;;;;;;5091154;28;20221;-67
2022/01/19 06:25:25;;;;;;;37.97;19.60;;;-1.60;99.90;;;;;;5091766;28;20471;-68
2022/01/19 06:27:51;;;;;;;36.42;19.67;;;-1.60;99.90;;;;;;5091075;28;20101;-68
2022/01/19 06:30:16;;;;;;;38.10;18.58;;;-1.60;99.90;;;;;;5091915;28;20435;-71
2022/01/19 06:32:42;;;;;;;38.65;19.23;;;-1.50;99.90;;;;;;5091207;28;20047;-67
2022/01/19 06:35:08;;;;;;;34.40;17.92;;;-1.50;99.90;;;;;;5090500;28;20056;-68
2022/01/19 06:37:34;;;;;;;40.88;18.45;;;-1.50;99.90;;;;;;5082321;28;20036;-66
2022/01/19 06:40:00;;;;;;;36.72;17.98;;;-1.40;99.90;;;;;;5065069;28;21094;-74
2022/01/19 06:42:26;;;;;;;34.47;17.52;;;-1.30;99.90;;;;;;5092945;28;20039;-71
2022/01/19 06:44:51;;;;;;;36.35;17.20;;;-1.30;99.90;;;;;;5092222;28;20028;-68
2022/01/19 06:47:17;;;;;;;34.75;17.40;;;-1.20;99.90;;;;;;5091510;28;20039;-68
2022/01/19 06:49:43;;;;;;;37.88;16.85;;;-1.20;99.90;;;;;;5068759;28;20420;-66
2022/01/19 06:52:09;;;;;;;33.65;17.40;;;-1.10;99.90;;;;;;5090747;28;20414;-68
2022/01/19 06:54:35;;;;;;;32.33;16.50;;;-1.10;99.90;;;;;;5073318;28;20036;-67
2022/01/19 06:57:00;;;;;;;30.65;15.90;;;-1.10;99.90;;;;;;5090150;28;20472;-73
2022/01/19 06:59:26;;;;;;;27.70;15.73;;;-1.10;99.90;;;;;;5091117;28;20036;-67
2022/01/19 07:01:52;;;;;;;29.23;15.80;;;-1.10;99.90;;;;;;5085187;28;20381;-67
2022/01/19 07:04:18;;;;;;;34.88;17.00;;;-1.20;99.90;;;;;;5091487;28;20023;-67
2022/01/19 07:06:44;;;;;;;33.20;17.25;;;-1.30;99.90;;;;;;5090645;28;20028;-66
2022/01/19 07:09:10;;;;;;;33.30;17.15;;;-1.30;99.90;;;;;;5090028;28;20530;-67
2022/01/19 07:11:36;;;;;;;37.13;17.50;;;-1.30;99.90;;;;;;5091638;28;20054;-67
2022/01/19 07:14:05;;;;;;;37.80;18.05;;;-1.40;99.90;;;;;;5086560;28;20028;-67
2022/01/19 07:16:31;;;;;;;31.75;16.73;;;-1.40;99.90;;;;;;5109087;28;20080;-67
2022/01/19 07:18:57;;;;;;;31.02;16.73;;;-1.40;99.90;;;;;;5109392;28;20038;-67
2022/01/19 07:21:23;;;;;;;37.90;18.85;;;-1.50;99.90;;;;;;5111897;28;20032;-70
2022/01/19 07:23:49;;;;;;;38.53;16.85;;;-1.40;99.90;;;;;;5111261;28;20059;-71
2022/01/19 07:26:15;;;;;;;27.98;15.55;;;-1.40;99.90;;;;;;5091908;28;20062;-72
2022/01/19 07:28:41;;;;;;;33.63;17.70;;;-1.40;99.90;;;;;;5092038;28;20047;-72
2022/01/19 07:31:06;;;;;;;33.20;16.42;;;-1.40;99.90;;;;;;5094242;28;20035;-69
2022/01/19 07:33:32;;;;;;;37.53;18.17;;;-1.40;99.90;;;;;;5094219;28;20024;-71
2022/01/19 07:35:58;;;;;;;34.53;17.27;;;-1.40;99.90;;;;;;5094037;28;20116;-72
2022/01/19 07:38:26;;;;;;;34.55;16.60;;;-1.30;99.90;;;;;;5094550;28;20089;-72
2022/01/19 07:40:52;;;;;;;34.88;18.02;;;-1.40;99.90;;;;;;5094368;28;20403;-73
2022/01/19 07:43:18;;;;;;;28.65;16.85;;;-1.40;99.90;;;;;;5091867;28;20095;-73
2022/01/19 07:45:44;;;;;;;35.67;18.55;;;-1.50;99.90;;;;;;5076555;28;20108;-69
2022/01/19 07:48:10;;;;;;;33.88;16.92;;;-1.40;99.90;;;;;;5073731;28;20391;-69
2022/01/19 07:50:36;;;;;;;31.23;17.38;;;-1.50;99.90;;;;;;5089384;28;20024;-71
2022/01/19 07:53:03;;;;;;;31.20;16.85;;;-1.40;99.90;;;;;;5093670;28;20419;-70
2022/01/19 07:55:28;;;;;;;31.02;16.50;;;-1.40;99.90;;;;;;5094228;28;20038;-68
2022/01/19 07:57:54;;;;;;;31.50;16.92;;;-1.40;99.90;;;;;;5093058;28;20447;-68
2022/01/19 08:00:21;;;;;;;30.60;16.42;;;-1.40;99.90;;;;;;5094394;28;20111;-68
2022/01/19 08:02:47;;;;;;;38.50;17.38;;;-1.40;99.90;;;;;;5090222;28;20099;-66
2022/01/19 08:05:12;;;;;;;27.17;16.90;;;-1.40;99.90;;;;;;5094911;28;20115;-68
2022/01/19 08:07:38;;;;;;;30.52;17.05;;;-1.30;99.90;;;;;;5094648;28;20540;-68
2022/01/19 08:10:05;;;;;;;30.02;16.92;;;-1.40;99.90;;;;;;5093801;28;20097;-68
2022/01/19 08:12:31;;;;;;;30.88;17.88;;;-1.30;99.90;;;;;;5094121;28;20024;-68
2022/01/19 08:14:58;;;;;;;34.78;17.85;;;-1.30;99.90;;;;;;5090706;28;20028;-67
2022/01/19 08:17:26;;;;;;;31.13;18.40;;;-1.30;99.90;;;;;;5114411;28;20110;-68
2022/01/19 08:19:52;;;;;;;37.38;17.85;;;-1.30;99.90;;;;;;5114355;28;20052;-69
2022/01/19 08:22:19;;;;;;;34.67;17.58;;;-1.20;99.90;;;;;;5096269;28;20430;-68
2022/01/19 08:24:44;;;;;;;32.00;18.33;;;-1.20;99.90;;;;;;5106601;28;20024;-68
2022/01/19 08:27:10;;;;;;;37.42;19.73;;;-1.10;99.90;;;;;;5093737;28;20055;-68
2022/01/19 08:29:36;;;;;;;35.05;18.85;;;-1.00;99.90;;;;;;5094087;28;20375;-68
2022/01/19 08:32:02;;;;;;;33.58;18.42;;;-0.90;99.90;;;;;;5093553;28;20419;-68
2022/01/19 08:34:29;;;;;;;32.22;17.20;;;-0.80;99.90;;;;;;5075684;28;20020;-69
2022/01/19 08:36:55;;;;;;;32.90;17.60;;;-0.70;99.90;;;;;;5093056;28;20032;-68
2022/01/19 08:39:21;;;;;;;30.80;16.75;;;-0.60;99.90;;;;;;5088762;28;20031;-67
2022/01/19 08:41:46;;;;;;;34.65;17.80;;;-0.50;99.90;;;;;;5092142;28;20024;-66
2022/01/19 08:44:12;;;;;;;31.27;16.90;;;-0.40;99.90;;;;;;5093818;28;20047;-67
2022/01/19 08:46:39;;;;;;;33.15;17.02;;;-0.30;99.90;;;;;;5093666;28;20028;-67
2022/01/19 08:49:05;;;;;;;29.70;16.45;;;-0.20;99.90;;;;;;5092676;28;20060;-67
2022/01/19 08:51:30;;;;;;;33.70;18.40;;;-0.10;99.90;;;;;;5093613;28;20032;-68
2022/01/19 08:53:56;;;;;;;30.30;16.75;;;0.10;99.90;;;;;;5092877;28;20461;-68
2022/01/19 08:56:22;;;;;;;26.73;15.65;;;0.20;99.90;;;;;;5093607;28;20103;-69
2022/01/19 08:58:48;;;;;;;29.33;17.17;;;0.30;99.90;;;;;;5092834;28;20036;-68
2022/01/19 09:01:13;;;;;;;30.00;17.05;;;0.40;99.90;;;;;;5093515;28;20028;-68
2022/01/19 09:03:39;;;;;;;27.80;16.27;;;0.50;99.90;;;;;;5093461;28;20103;-68
2022/01/19 09:06:05;;;;;;;30.42;17.58;;;0.70;99.90;;;;;;5092742;28;20035;-68
2022/01/19 09:08:31;;;;;;;31.05;17.15;;;0.80;99.90;;;;;;5093460;28;20366;-68
2022/01/19 09:10:58;;;;;;;29.65;15.85;;;0.90;99.90;;;;;;5092155;28;20443;-68
2022/01/19 09:13:25;;;;;;;28.70;15.68;;;1.00;99.90;;;;;;5093150;28;20076;-69
2022/01/19 09:15:50;;;;;;;26.63;16.00;;;1.10;99.90;;;;;;5092556;28;20024;-68
2022/01/19 09:18:16;;;;;;;22.63;15.65;;;1.20;99.90;;;;;;5092878;28;20085;-68
2022/01/19 09:20:42;;;;;;;24.92;16.25;;;1.20;99.90;;;;;;5093066;28;20480;-69
2022/01/19 09:23:08;;;;;;;28.40;15.32;;;1.30;99.90;;;;;;5092215;28;20101;-68
2022/01/19 09:25:34;;;;;;;28.60;16.05;;;1.40;99.90;;;;;;5092798;28;20028;-68
2022/01/19 09:28:00;;;;;;;28.25;15.38;;;1.50;99.90;;;;;;5092511;28;20031;-68
2022/01/19 09:30:26;;;;;;;23.90;15.07;;;1.60;99.90;;;;;;5092924;28;20059;-68
2022/01/19 09:33:09;;;;;;;25.85;16.33;;;1.60;99.90;;;;;;5088322;28;20062;-68
2022/01/19 09:38:32;;;;;;;24.75;14.25;;;1.80;99.90;;;;;;5092879;28;20127;-68
2022/01/19 09:40:58;;;;;;;22.40;14.45;;;1.90;99.90;;;;;;5092135;28;20031;-66
2022/01/19 09:43:25;;;;;;;26.15;14.63;;;2.00;99.90;;;;;;5092633;28;20028;-67
2022/01/19 09:45:57;;;;;;;28.73;14.55;;;2.10;99.90;;;;;;5092001;28;20028;-66
2022/01/19 09:48:24;;;;;;;26.73;14.88;;;2.10;99.90;;;;;;5091886;28;20107;-67
2022/01/19 09:50:49;;;;;;;25.85;16.17;;;2.20;99.90;;;;;;5092213;28;20062;-69
2022/01/19 09:53:15;;;;;;;23.17;13.82;;;2.40;99.90;;;;;;5092357;28;20054;-67
2022/01/19 09:55:41;;;;;;;22.33;14.15;;;2.50;99.90;;;;;;5091974;28;20377;-66
2022/01/19 09:58:08;;;;;;;25.13;14.25;;;2.60;99.90;;;;;;5090865;28;20028;-67
2022/01/19 10:00:35;;;;;;;22.17;13.90;;;2.60;99.90;;;;;;5092148;28;20105;-67
2022/01/19 10:03:14;;;;;;;23.23;13.75;;;2.70;99.90;;;;;;5091235;28;20457;-67
2022/01/19 10:06:10;;;;;;;23.58;13.88;;;2.60;99.90;;;;;;5092168;28;20027;-68
2022/01/19 10:08:47;;;;;;;22.38;14.82;;;2.80;99.90;;;;;;5091991;28;20073;-67
2022/01/19 10:17:06;;;;;;;24.42;14.60;;;3.10;99.90;;;;;;5091597;28;20442;-67
2022/01/19 10:19:44;;;;;;;25.38;13.75;;;3.20;99.90;;;;;;5092111;28;20115;-67
2022/01/19 10:22:19;;;;;;;23.42;13.98;;;3.20;99.90;;;;;;5091119;28;20099;-68
2022/01/19 10:24:47;;;;;;;22.98;13.35;;;3.20;99.90;;;;;;5091569;28;20024;-66
2022/01/19 10:27:38;;;;;;;22.90;13.15;;;3.30;99.90;;;;;;5086665;28;20040;-67
2022/01/19 10:30:04;;;;;;;24.20;13.38;;;3.30;99.90;;;;;;5090658;28;20024;-68
2022/01/19 10:32:36;;;;;;;24.80;14.23;;;3.40;99.90;;;;;;5091405;28;20024;-68
2022/01/19 10:35:24;;;;;;;21.50;14.00;;;3.40;99.90;;;;;;5090853;28;20024;-68
2022/01/19 10:38:16;;;;;;;26.83;15.45;;;3.40;99.90;;;;;;5090871;28;20028;-67
2022/01/19 10:41:07;;;;;;;24.15;15.05;;;3.50;99.90;;;;;;5091639;28;20050;-67
2022/01/19 10:43:48;;;;;;;23.02;13.38;;;3.60;99.90;;;;;;5091526;28;20063;-68
2022/01/19 10:46:23;;;;;;;25.88;14.52;;;3.60;99.90;;;;;;5091239;28;20024;-67
2022/01/19 10:49:06;;;;;;;25.48;14.25;;;3.70;99.90;;;;;;5090880;28;20044;-65
2022/01/19 10:51:45;;;;;;;23.40;14.48;;;3.80;99.90;;;;;;5091591;28;20032;-67
2022/01/19 10:54:16;;;;;;;22.17;14.27;;;3.90;99.90;;;;;;5090871;28;20334;-68
2022/01/19 10:56:44;;;;;;;28.02;14.15;;;3.90;99.90;;;;;;5091554;28;20046;-69
2022/01/19 10:59:12;;;;;;;25.63;13.98;;;3.90;99.90;;;;;;5090424;28;20031;-68
2022/01/19 11:01:41;;;;;;;26.77;14.35;;;4.00;99.90;;;;;;5091391;28;20035;-68
2022/01/19 11:04:28;;;;;;;24.92;14.95;;;4.10;99.90;;;;;;5092119;28;20089;-68
2022/01/19 11:07:01;;;;;;;25.60;15.00;;;4.10;99.90;;;;;;5094322;28;20495;-68
2022/01/19 11:09:29;;;;;;;23.13;14.40;;;4.20;99.90;;;;;;5095297;28;20024;-68
2022/01/19 11:12:10;;;;;;;28.95;16.52;;;4.30;99.90;;;;;;5094469;28;20400;-67
2022/01/19 11:14:36;;;;;;;23.83;14.13;;;4.30;99.90;;;;;;5087010;28;20039;-67
2022/01/19 11:17:03;;;;;;;23.75;14.32;;;4.40;99.90;;;;;;5089444;28;20040;-68
2022/01/19 11:19:28;;;;;;;29.55;15.43;;;4.50;99.90;;;;;;5074952;28;20064;-68
2022/01/19 11:22:16;;;;;;;22.50;13.52;;;4.60;99.90;;;;;;5073888;28;20060;-68
2022/01/19 11:25:04;;;;;;;23.48;13.57;;;4.60;99.90;;;;;;5081424;28;20035;-68
2022/01/19 11:27:48;;;;;;;24.08;13.13;;;4.70;99.90;;;;;;5095012;28;20080;-68
2022/01/19 11:30:26;;;;;;;24.60;14.93;;;4.80;99.90;;;;;;5076255;28;20376;-68
2022/01/19 11:33:10;;;;;;;25.27;14.82;;;4.80;99.90;;;;;;5093795;28;20077;-67
2022/01/19 11:35:36;;;;;;;22.13;13.27;;;4.80;99.90;;;;;;5094504;28;20234;-68
2022/01/19 11:38:36;;;;;;;23.10;13.35;;;4.80;99.90;;;;;;5093506;28;20492;-67
2022/01/19 11:41:08;;;;;;;21.80;13.02;;;5.00;99.90;;;;;;5094182;28;20034;-68
2022/01/19 11:43:39;;;;;;;25.85;13.93;;;4.90;99.90;;;;;;5095024;28;20032;-68
2022/01/19 11:46:24;;;;;;;22.15;13.32;;;5.00;99.90;;;;;;5093411;28;20077;-68
2022/01/19 11:48:51;;;;;;;22.42;13.98;;;5.00;99.90;;;;;;5093993;28;20100;-66
2022/01/19 11:51:38;;;;;;;20.40;12.30;;;5.00;99.90;;;;;;5093971;28;20032;-68
2022/01/19 11:54:19;;;;;;;26.48;13.23;;;5.00;99.90;;;;;;5093082;28;20039;-68
2022/01/19 11:57:03;;;;;;;23.83;13.65;;;5.00;99.90;;;;;;5093844;28;20034;-68
2022/01/19 12:00:04;;;;;;;21.10;12.80;;;5.20;99.90;;;;;;5093617;28;20051;-68
2022/01/19 12:02:37;;;;;;;24.88;14.73;;;5.20;99.90;;;;;;5093800;28;20024;-68
2022/01/19 12:05:07;;;;;;;20.75;12.85;;;5.20;99.90;;;;;;5093203;28;20036;-68
2022/01/19 12:07:36;;;;;;;;;;;5.20;99.90;;;;;;5075647;28;20448;-69
2022/01/19 12:10:06;;;;;;;22.13;13.88;;;5.30;99.90;;;;;;5092633;28;19904;-67
2022/01/19 12:12:38;;;;;;;22.33;13.85;;;5.30;99.90;;;;;;5093229;28;20519;-69
2022/01/19 12:15:07;;;;;;;22.95;13.93;;;5.30;99.90;;;;;;5082068;28;20437;-67
2022/01/19 12:17:56;;;;;;;22.93;13.70;;;5.30;99.90;;;;;;5072452;28;20041;-67
2022/01/19 12:20:57;;;;;;;24.23;13.65;;;5.20;99.90;;;;;;5072985;28;20465;-67
2022/01/19 12:23:37;;;;;;;28.73;14.27;;;5.30;99.90;;;;;;4971678;28;20088;-68
2022/01/19 12:26:06;;;;;;;22.90;13.43;;;5.30;99.90;;;;;;5078624;28;20106;-68
2022/01/19 12:28:46;;;;;;;22.67;13.47;;;5.20;99.90;;;;;;5093180;28;20180;-68
2022/01/19 12:31:24;;;;;;;20.92;12.68;;;5.20;99.90;;;;;;5092268;28;20046;-68
2022/01/19 12:34:07;;;;;;;22.23;13.02;;;5.10;99.90;;;;;;5092284;28;20077;-66
2022/01/19 12:36:58;;;;;;;19.73;12.40;;;5.00;99.90;;;;;;5093224;28;20028;-69
2022/01/19 12:39:26;;;;;;;;;;;5.00;99.90;;;;;;5093280;28;20040;-67
2022/01/19 12:41:59;;;;;;;25.83;11.57;;;5.00;99.90;;;;;;5092247;28;19904;-67
2022/01/19 12:44:34;;;;;;;17.13;11.25;;;5.00;99.90;;;;;;5092789;28;20089;-68
2022/01/19 12:47:23;;;;;;;17.15;10.65;;;4.90;99.90;;;;;;5091499;28;20028;-67
2022/01/19 12:49:50;;;;;;;17.70;10.60;;;4.80;99.90;;;;;;5102921;28;20104;-67
2022/01/19 12:52:18;;;;;;;20.33;10.65;;;4.80;99.90;;;;;;5103732;28;20027;-68
2022/01/19 12:54:44;;;;;;;24.27;10.95;;;4.90;99.90;;;;;;5093657;28;20016;-67
2022/01/19 12:57:15;;;;;;;19.58;10.23;;;5.00;99.90;;;;;;5092866;28;20032;-68
2022/01/19 12:59:44;;;;;;;16.45;10.07;;;5.20;99.90;;;;;;5092954;28;20024;-68
2022/01/19 13:02:14;;;;;;;18.65;10.80;;;5.30;99.90;;;;;;5091855;28;20085;-68
2022/01/19 13:04:42;;;;;;;18.85;10.68;;;5.40;99.90;;;;;;5092622;28;20102;-68
2022/01/19 13:07:17;;;;;;;15.93;9.88;;;5.40;99.90;;;;;;5091909;28;20032;-68
2022/01/19 13:10:13;;;;;;;14.63;9.75;;;5.40;99.90;;;;;;5087839;28;20028;-68
2022/01/19 13:12:48;;;;;;;16.55;9.32;;;5.50;99.90;;;;;;5092648;28;20024;-68
2022/01/19 13:15:14;;;;;;;16.00;9.30;;;5.60;99.90;;;;;;5091326;28;20526;-68
2022/01/19 13:17:42;;;;;;;15.85;9.45;;;5.60;99.90;;;;;;5092292;28;20036;-68
2022/01/19 13:20:17;;;;;;;13.93;8.80;;;5.60;99.90;;;;;;5091966;28;20527;-68
2022/01/19 13:22:45;;;;;;;15.95;7.90;;;5.60;99.90;;;;;;5092369;28;20024;-68
2022/01/19 13:25:26;;;;;;;12.52;8.82;;;5.50;99.90;;;;;;5091863;28;20023;-67
2022/01/19 13:27:55;;;;;;;14.60;8.68;;;5.50;99.90;;;;;;5091304;28;20469;-68
2022/01/19 13:30:22;;;;;;;11.80;7.85;;;5.50;99.90;;;;;;5092536;28;20022;-67
2022/01/19 13:32:49;;;;;;;13.15;8.23;;;5.50;99.90;;;;;;5092370;28;20475;-67
2022/01/19 13:35:15;;;;;;;15.05;8.63;;;5.50;99.90;;;;;;5092587;28;20091;-67
2022/01/19 13:37:45;;;;;;;14.23;8.80;;;5.60;99.90;;;;;;5092340;28;20097;-67
2022/01/19 13:40:11;;;;;;;17.15;8.50;;;5.60;99.90;;;;;;5091853;28;20020;-67
2022/01/19 13:42:38;;;;;;;15.40;9.30;;;5.70;99.90;;;;;;5092226;28;20030;-68
2022/01/19 13:45:19;;;;;;;12.60;8.52;;;5.70;99.90;;;;;;5091662;28;20016;-67
2022/01/19 13:48:21;;;;;;;14.95;8.57;;;5.70;99.90;;;;;;5092134;28;20464;-67
2022/01/19 13:50:51;;;;;;;17.55;8.70;;;5.70;99.90;;;;;;5092328;28;20054;-69
2022/01/19 13:53:40;;;;;;;14.07;8.38;;;5.70;99.90;;;;;;5092178;28;20050;-68
2022/01/19 13:56:11;;;;;;;19.08;9.98;;;5.60;99.90;;;;;;5091367;28;20020;-68
2022/01/19 13:58:39;;;;;;;15.15;9.02;;;5.50;99.90;;;;;;5091258;28;20412;-67
2022/01/19 14:01:08;;;;;;;16.27;9.07;;;5.40;99.90;;;;;;5091468;28;20027;-68
2022/01/19 14:03:57;;;;;;;17.17;8.10;;;5.40;99.90;;;;;;5082076;28;20410;-68
2022/01/19 14:06:26;;;;;;;17.00;9.27;;;5.40;99.90;;;;;;5071683;28;20060;-68
2022/01/19 14:09:11;;;;;;;13.35;8.75;;;5.40;99.90;;;;;;5070875;28;20030;-68
2022/01/19 14:11:42;;;;;;;20.20;9.10;;;5.50;99.90;;;;;;5071602;28;20028;-68